createdAt,value
2018-11-25T00:02:14.888Z,32.63
2018-11-25T00:04:47.478Z,34.18
2018-11-25T00:07:20.162Z,37.63
2018-11-25T00:09:52.803Z,33.18
2018-11-25T00:12:25.454Z,37.23
2018-11-25T00:14:58.068Z,33.18
2018-11-25T00:17:30.679Z,38.95
2018-11-25T00:20:04.729Z,39.13
2018-11-25T00:22:37.320Z,37.95
2018-11-25T00:25:12.176Z,40.50
2018-11-25T00:27:45.336Z,46.25
2018-11-25T00:30:18.009Z,45.33
2018-11-25T00:32:50.603Z,43.10
2018-11-25T00:35:23.354Z,39.67
2018-11-25T00:37:55.949Z,39.58
2018-11-25T00:40:28.551Z,39.23
2018-11-25T00:43:01.105Z,35.33
2018-11-25T00:45:33.709Z,35.25
2018-11-25T00:48:06.313Z,39.92
2018-11-25T00:50:38.930Z,39.70
2018-11-25T00:53:11.562Z,37.23
2018-11-25T00:55:44.122Z,38.28
2018-11-25T00:58:16.671Z,36.75
2018-11-25T01:00:49.288Z,34.92
2018-11-25T01:03:21.904Z,34.60
2018-11-25T01:05:54.612Z,33.67
2018-11-25T01:08:27.203Z,34.38
2018-11-25T01:10:59.813Z,34.48
2018-11-25T01:13:32.428Z,30.62
2018-11-25T01:16:05.324Z,35.68
2018-11-25T01:18:37.884Z,36.60
2018-11-25T01:21:10.451Z,38.38
2018-11-25T01:23:43.076Z,37.40
2018-11-25T01:26:15.650Z,37.60
2018-11-25T01:28:48.201Z,39.10
2018-11-25T01:31:20.812Z,37.28
2018-11-25T01:33:53.471Z,32.00
2018-11-25T01:36:26.071Z,31.20
2018-11-25T01:38:58.637Z,34.18
2018-11-25T01:41:31.235Z,35.43
2018-11-25T01:44:03.917Z,30.02
2018-11-25T01:46:36.512Z,31.00
2018-11-25T01:49:09.074Z,32.28
2018-11-25T01:51:41.677Z,31.48
2018-11-25T01:54:14.257Z,35.60
2018-11-25T01:59:34.237Z,31.35
2018-11-25T02:02:06.828Z,30.15
2018-11-25T02:04:39.389Z,35.60
2018-11-25T02:07:12.005Z,32.55
2018-11-25T02:09:44.642Z,28.42
2018-11-25T02:12:17.300Z,30.70
2018-11-25T02:14:49.860Z,32.93
2018-11-25T02:17:22.472Z,35.00
2018-11-25T02:19:55.099Z,32.67
2018-11-25T02:22:29.037Z,39.42
2018-11-25T02:25:00.295Z,39.08
2018-11-25T02:27:32.981Z,38.53
2018-11-25T02:30:08.217Z,39.35
2018-11-25T02:32:40.856Z,43.68
2018-11-25T02:35:14.420Z,40.33
2018-11-25T02:37:47.011Z,37.28
2018-11-25T02:40:19.557Z,40.20
2018-11-25T02:42:52.935Z,38.35
2018-11-25T02:45:25.532Z,39.20
2018-11-25T02:47:58.088Z,38.63
2018-11-25T02:50:30.922Z,37.88
2018-11-25T02:53:05.893Z,36.68
2018-11-25T02:55:38.514Z,35.20
2018-11-25T02:58:11.113Z,41.18
2018-11-25T03:00:43.729Z,35.60
2018-11-25T03:03:16.372Z,28.98
2018-11-25T03:05:48.966Z,27.77
2018-11-25T03:08:21.674Z,28.05
2018-11-25T03:10:54.693Z,29.85
2018-11-25T03:13:27.260Z,26.30
2018-11-25T03:15:59.834Z,24.63
2018-11-25T03:18:32.370Z,24.70
2018-11-25T03:21:06.015Z,21.87
2018-11-25T03:23:38.566Z,21.15
2018-11-25T03:26:11.150Z,22.70
2018-11-25T03:28:43.771Z,23.27
2018-11-25T03:31:16.380Z,21.48
2018-11-25T03:33:49.001Z,20.48
2018-11-25T03:36:21.666Z,20.45
2018-11-25T03:38:54.337Z,21.17
2018-11-25T03:41:27.081Z,20.72
2018-11-25T03:44:00.641Z,20.12
2018-11-25T03:46:33.278Z,20.23
2018-11-25T03:49:05.988Z,19.55
2018-11-25T03:51:38.542Z,21.85
2018-11-25T03:54:11.094Z,20.60
2018-11-25T03:56:44.664Z,24.15
2018-11-25T03:59:17.237Z,20.75
2018-11-25T04:01:49.845Z,19.73
2018-11-25T04:04:22.442Z,20.57
2018-11-25T04:06:55.040Z,19.35
2018-11-25T04:09:27.670Z,19.12
2018-11-25T04:12:00.375Z,18.40
2018-11-25T04:14:32.964Z,17.55
2018-11-25T04:17:05.599Z,18.42
2018-11-25T04:19:38.224Z,17.45
2018-11-25T04:22:10.824Z,19.45
2018-11-25T04:24:43.456Z,19.05
2018-11-25T04:27:16.076Z,17.20
2018-11-25T04:29:48.707Z,17.55
2018-11-25T04:32:21.330Z,17.45
2018-11-25T04:34:53.940Z,15.80
2018-11-25T04:37:26.501Z,17.82
2018-11-25T04:39:59.022Z,19.05
2018-11-25T04:42:31.646Z,17.12
2018-11-25T04:45:04.718Z,15.85
2018-11-25T04:47:37.338Z,18.30
2018-11-25T04:50:13.286Z,17.23
2018-11-25T04:52:45.957Z,19.00
2018-11-25T04:55:18.542Z,18.07
2018-11-25T04:57:51.859Z,18.65
2018-11-25T05:00:24.538Z,21.62
2018-11-25T05:02:57.188Z,20.17
2018-11-25T05:05:29.746Z,19.73
2018-11-25T05:08:02.349Z,22.27
2018-11-25T05:10:34.960Z,22.45
2018-11-25T05:13:07.583Z,19.73
2018-11-25T05:15:40.216Z,23.62
2018-11-25T05:18:12.825Z,22.42
2018-11-25T16:26:19.570Z,75.45
2018-11-25T16:28:55.059Z,76.67
2018-11-25T16:31:28.626Z,66.72
2018-11-25T16:34:01.353Z,65.20
2018-11-25T16:36:34.033Z,65.52
2018-11-25T16:39:08.670Z,66.42
2018-11-25T16:41:41.328Z,68.60
2018-11-25T16:44:13.983Z,70.30
2018-11-25T16:46:46.664Z,66.10
2018-11-25T16:49:19.351Z,63.15
2018-11-25T16:51:52.041Z,66.37
2018-11-25T16:54:24.700Z,64.27
2018-11-25T16:56:57.385Z,75.55
2018-11-25T16:59:30.104Z,60.48
2018-11-25T17:02:02.747Z,52.78
2018-11-25T17:04:35.440Z,57.43
2018-11-25T17:07:08.186Z,61.28
2018-11-25T17:09:40.936Z,54.25
2018-11-25T17:12:13.712Z,54.60
2018-11-25T17:14:46.471Z,63.90
2018-11-25T17:17:19.107Z,52.35
2018-11-25T17:19:51.823Z,56.68
2018-11-25T17:22:24.521Z,55.28
2018-11-25T17:27:44.062Z,58.90
2018-11-25T17:30:17.968Z,57.93
2018-11-25T17:32:50.687Z,52.90
2018-11-25T17:35:26.618Z,59.38
2018-11-25T17:37:59.298Z,56.92
2018-11-25T17:40:32.057Z,50.95
2018-11-25T17:43:05.385Z,52.83
2018-11-25T17:45:38.086Z,58.42
2018-11-25T17:48:10.754Z,61.85
2018-11-25T17:50:43.479Z,63.15
2018-11-25T17:53:20.704Z,61.13
2018-11-25T17:55:48.929Z,56.98
2018-11-25T17:58:21.587Z,59.60
2018-11-25T18:00:59.037Z,54.08
2018-11-25T18:03:33.102Z,57.75
2018-11-25T18:06:06.145Z,52.40
2018-11-25T18:08:38.881Z,56.20
2018-11-25T18:11:11.571Z,64.30
2018-11-25T18:13:44.290Z,64.12
2018-11-25T18:16:17.033Z,69.80
2018-11-25T18:18:52.575Z,56.23
2018-11-25T18:21:26.179Z,53.52
2018-11-25T18:23:58.894Z,53.55
2018-11-25T18:26:31.714Z,51.90
2018-11-25T18:29:04.869Z,53.98
2018-11-25T18:31:37.609Z,48.65
2018-11-25T18:34:10.212Z,50.92
2018-11-25T18:36:43.478Z,51.23
2018-11-25T18:39:16.156Z,51.00
2018-11-25T18:41:49.275Z,51.63
2018-11-25T18:44:21.953Z,49.38
2018-11-25T18:46:54.599Z,57.70
2018-11-25T18:49:27.335Z,53.87
2018-11-25T18:52:05.096Z,50.38
2018-11-25T18:54:32.862Z,49.48
2018-11-25T18:57:05.530Z,60.23
2018-11-25T18:59:38.261Z,62.35
2018-11-25T19:02:14.667Z,60.73
2018-11-25T19:04:47.342Z,66.47
2018-11-25T19:07:20.009Z,60.80
2018-11-25T19:09:52.698Z,59.45
2018-11-25T19:12:25.427Z,56.33
2018-11-25T19:14:58.502Z,62.10
2018-11-25T19:17:31.395Z,71.25
2018-11-25T19:20:08.928Z,74.20
2018-11-25T19:22:41.937Z,63.33
2018-11-25T19:25:15.927Z,77.53
2018-11-25T19:27:48.801Z,85.03
2018-11-25T19:30:26.332Z,66.90
2018-11-25T19:32:54.296Z,72.75
2018-11-25T19:35:27.011Z,87.45
2018-11-25T19:37:59.706Z,68.72
2018-11-25T19:40:32.363Z,61.98
2018-11-25T19:43:06.450Z,65.75
2018-11-25T19:45:39.114Z,61.98
2018-11-25T19:48:11.760Z,61.25
2018-11-25T19:50:44.507Z,58.08
2018-11-25T19:53:17.244Z,59.85
2018-11-25T19:55:49.953Z,61.02
2018-11-25T19:58:22.692Z,57.10
2018-11-25T20:00:55.477Z,59.50
2018-11-25T20:03:28.229Z,63.52
2018-11-25T20:06:00.887Z,54.30
2018-11-25T20:08:33.675Z,53.52
2018-11-25T20:11:06.489Z,59.88
2018-11-25T20:13:39.305Z,58.48
2018-11-25T20:16:18.136Z,52.43
2018-11-25T20:18:50.955Z,55.75
2018-11-25T20:21:29.115Z,52.90
2018-11-25T20:24:01.704Z,54.85
2018-11-25T20:26:34.427Z,52.30
2018-11-25T20:29:07.250Z,51.85
2018-11-25T20:33:09.408Z,50.75
2018-11-25T20:35:42.072Z,54.30
2018-11-25T20:38:20.391Z,57.65
2018-11-25T20:40:53.048Z,53.60
2018-11-25T20:43:25.733Z,51.70
2018-11-25T20:46:04.045Z,53.10
2018-11-25T20:48:36.727Z,60.23
2018-11-25T20:51:09.448Z,55.08
2018-11-25T20:53:47.855Z,51.02
2018-11-25T20:56:20.440Z,48.95
2018-11-25T20:58:53.175Z,52.43
2018-11-25T21:01:26.731Z,48.00
2018-11-25T21:03:59.421Z,46.68
2018-11-25T21:06:32.238Z,52.17
2018-11-25T21:09:08.677Z,45.55
2018-11-25T21:11:41.362Z,49.20
2018-11-25T21:14:14.802Z,47.00
2018-11-25T21:16:48.500Z,49.13
2018-11-25T21:19:21.117Z,48.95
2018-11-25T21:21:53.876Z,50.58
2018-11-25T21:24:29.713Z,51.05
2018-11-25T21:27:02.338Z,45.83
2018-11-25T21:29:35.098Z,44.27
2018-11-25T21:32:07.802Z,43.33
2018-11-25T21:34:40.674Z,44.23
2018-11-25T21:37:13.432Z,42.67
2018-11-25T21:39:47.478Z,41.63
2018-11-25T21:42:20.140Z,41.90
2018-11-25T21:44:52.845Z,42.80
2018-11-25T21:47:28.475Z,40.12
2018-11-25T21:50:01.200Z,43.13
2018-11-25T21:52:33.888Z,41.85
2018-11-25T21:55:08.886Z,39.73
2018-11-25T21:57:41.714Z,42.03
2018-11-25T22:00:19.427Z,42.60
2018-11-25T22:02:52.132Z,43.50
2018-11-25T22:05:25.205Z,47.80
2018-11-25T22:07:57.823Z,44.30
2018-11-25T22:10:30.517Z,46.05
2018-11-25T22:13:03.266Z,43.85
2018-11-25T22:15:35.928Z,44.88
2018-11-25T22:18:08.650Z,42.50
2018-11-25T22:20:41.396Z,50.65
2018-11-25T22:23:14.040Z,46.13
2018-11-25T22:25:46.873Z,41.05
2018-11-25T22:28:19.472Z,43.50
2018-11-25T22:30:52.130Z,41.28
2018-11-25T22:33:24.775Z,42.70
2018-11-25T22:35:57.387Z,40.85
2018-11-25T22:38:30.007Z,40.28
2018-11-25T22:41:02.678Z,41.15
2018-11-25T22:43:35.300Z,40.85
2018-11-25T22:46:07.966Z,40.08
2018-11-25T22:48:40.516Z,38.28
2018-11-25T22:51:13.121Z,40.25
2018-11-25T22:53:45.679Z,38.65
2018-11-25T22:56:18.329Z,38.60
2018-11-25T22:58:50.954Z,40.15
2018-11-25T23:01:23.677Z,39.75
2018-11-25T23:04:07.736Z,37.38
2018-11-25T23:06:51.633Z,38.55
2018-11-25T23:09:24.271Z,36.28
2018-11-25T23:11:57.004Z,36.20
2018-11-25T23:14:29.713Z,35.15
2018-11-25T23:17:02.337Z,32.25
2018-11-25T23:19:35.036Z,32.15
2018-11-25T23:22:07.663Z,33.48
2018-11-25T23:24:40.252Z,36.90
2018-11-25T23:27:12.909Z,34.40
2018-11-25T23:29:45.543Z,35.92
2018-11-25T23:32:18.179Z,39.95
2018-11-25T23:34:50.703Z,37.90
2018-11-25T23:37:23.385Z,35.63
2018-11-25T23:39:56.018Z,36.25
2018-11-25T23:42:28.698Z,37.88
2018-11-25T23:45:01.471Z,39.88
2018-11-25T23:47:34.128Z,38.38
2018-11-25T23:50:08.392Z,38.15
2018-11-25T23:52:41.847Z,35.73
2018-11-25T23:55:15.111Z,39.53
2018-11-25T23:57:47.803Z,40.25
